createdAt,value
2023-05-13T00:04:43.148Z,25.69
2023-05-13T00:09:46.810Z,25.87
2023-05-13T00:14:50.534Z,25.81
2023-05-13T00:19:55.783Z,25.77
2023-05-13T00:24:59.504Z,25.61
2023-05-13T00:30:03.216Z,25.38
2023-05-13T00:35:09.320Z,25.20
2023-05-13T00:40:21.097Z,25.20
2023-05-13T00:45:24.958Z,25.10
2023-05-13T00:50:30.254Z,24.91
2023-05-13T00:55:33.900Z,24.71
2023-05-13T01:00:42.426Z,24.57
2023-05-13T01:05:56.940Z,24.47
2023-05-13T01:11:04.886Z,24.34
2023-05-13T01:16:12.239Z,24.13
2023-05-13T01:21:17.540Z,23.97
2023-05-13T01:26:24.633Z,23.83
2023-05-13T01:31:29.996Z,23.70
2023-05-13T01:36:34.545Z,23.58
2023-05-13T01:41:39.814Z,23.31
2023-05-13T01:46:45.050Z,23.07
2023-05-13T01:51:48.717Z,22.81
2023-05-13T01:56:54.049Z,22.47
2023-05-13T02:01:57.683Z,22.30
2023-05-13T02:07:01.347Z,22.11
2023-05-13T02:12:08.231Z,21.75
2023-05-13T02:17:11.845Z,21.64
2023-05-13T02:22:15.500Z,21.55
2023-05-13T02:27:20.799Z,21.20
2023-05-13T02:32:24.467Z,20.94
2023-05-13T02:37:28.083Z,20.48
2023-05-13T02:42:33.381Z,20.32
2023-05-13T02:47:37.014Z,20.09
2023-05-13T02:52:40.753Z,19.85
2023-05-13T02:57:46.026Z,19.69
2023-05-13T03:02:48.922Z,19.39
2023-05-13T03:07:52.669Z,19.14
2023-05-13T03:12:58.065Z,18.94
2023-05-13T03:18:00.939Z,18.66
2023-05-13T03:23:04.930Z,18.50
2023-05-13T03:28:10.302Z,18.39
2023-05-13T03:33:13.197Z,18.09
2023-05-13T03:38:16.872Z,18.08
2023-05-13T03:43:23.122Z,17.95
2023-05-13T03:48:26.770Z,17.72
2023-05-13T03:53:30.558Z,17.62
2023-05-13T03:58:35.816Z,17.46
2023-05-13T04:03:39.426Z,17.45
2023-05-13T04:08:43.099Z,17.31
2023-05-13T04:13:49.328Z,17.25
2023-05-13T04:18:53.014Z,17.02
2023-05-13T04:23:56.657Z,16.99
2023-05-13T04:29:01.949Z,16.85
2023-05-13T04:34:05.545Z,16.67
2023-05-13T04:39:10.269Z,16.64
2023-05-13T04:44:15.550Z,16.45
2023-05-13T04:49:19.179Z,16.36
2023-05-13T04:54:23.320Z,16.33
2023-05-13T04:59:28.668Z,16.26
2023-05-13T05:04:32.279Z,16.23
2023-05-13T05:09:36.511Z,16.08
2023-05-13T05:14:41.843Z,15.99
2023-05-13T05:19:45.401Z,15.94
2023-05-13T05:24:49.011Z,15.83
2023-05-13T05:29:54.368Z,15.80
2023-05-13T05:34:57.972Z,15.72
2023-05-13T05:40:01.606Z,15.65
2023-05-13T05:45:07.789Z,15.60
2023-05-13T05:50:11.910Z,15.59
2023-05-13T05:55:15.534Z,15.49
2023-05-13T06:00:21.487Z,15.36
2023-05-13T06:05:25.171Z,15.23
2023-05-13T06:10:28.935Z,15.20
2023-05-13T06:15:34.435Z,15.21
2023-05-13T06:20:38.067Z,15.09
2023-05-13T06:25:41.731Z,15.10
2023-05-13T06:30:47.401Z,15.06
2023-05-13T06:35:51.007Z,14.92
2023-05-13T06:40:54.668Z,14.88
2023-05-13T06:45:59.924Z,14.86
2023-05-13T06:51:03.514Z,14.80
2023-05-13T06:56:07.755Z,14.77
2023-05-13T07:01:13.110Z,14.63
2023-05-13T07:06:16.822Z,14.62
2023-05-13T07:11:20.463Z,14.67
2023-05-13T07:16:26.340Z,14.54
2023-05-13T07:21:30.173Z,14.42
2023-05-13T07:26:34.514Z,14.45
2023-05-13T07:31:39.878Z,14.39
2023-05-13T07:36:43.634Z,14.42
2023-05-13T07:41:47.256Z,14.32
2023-05-13T07:46:52.559Z,14.28
2023-05-13T07:51:56.365Z,14.13
2023-05-13T07:56:59.976Z,14.02
2023-05-13T08:02:05.553Z,14.03
2023-05-13T08:07:09.143Z,14.02
2023-05-13T08:12:12.808Z,13.90
2023-05-13T08:17:18.095Z,13.96
2023-05-13T08:22:21.711Z,13.90
2023-05-13T08:27:25.304Z,13.83
2023-05-13T08:32:30.576Z,13.79
2023-05-13T08:37:34.216Z,13.62
2023-05-13T08:42:40.102Z,13.58
2023-05-13T08:47:49.430Z,13.43
2023-05-13T08:52:54.765Z,13.53
2023-05-13T08:57:58.401Z,13.62
2023-05-13T09:03:04.493Z,13.56
2023-05-13T09:08:09.409Z,13.60
2023-05-13T09:13:14.113Z,13.49
2023-05-13T09:18:19.777Z,13.31
2023-05-13T09:23:24.924Z,13.33
2023-05-13T09:28:28.548Z,13.36
2023-05-13T09:33:33.890Z,13.37
2023-05-13T09:38:37.506Z,13.30
2023-05-13T09:43:41.229Z,13.25
2023-05-13T09:48:46.620Z,13.18
2023-05-13T09:53:50.229Z,13.15
2023-05-13T09:58:54.154Z,13.17
2023-05-13T10:04:00.293Z,13.06
2023-05-13T10:09:07.290Z,13.09
2023-05-13T10:14:11.181Z,13.05
2023-05-13T10:19:16.687Z,13.02
2023-05-13T10:24:21.479Z,12.91
2023-05-13T10:29:27.285Z,12.93
2023-05-13T10:34:34.271Z,12.91
2023-05-13T10:40:02.983Z,12.82
2023-05-13T10:45:08.193Z,12.69
2023-05-13T10:50:26.120Z,12.62
2023-05-13T10:55:29.779Z,12.64
2023-05-13T11:00:33.685Z,12.60
2023-05-13T11:05:40.937Z,12.50
2023-05-13T11:10:55.182Z,12.50
2023-05-13T11:15:58.902Z,12.49
2023-05-13T11:21:07.409Z,12.49
2023-05-13T11:26:12.429Z,12.43
2023-05-13T11:31:17.585Z,12.41
2023-05-13T11:36:22.937Z,12.33
2023-05-13T11:41:26.810Z,12.33
2023-05-13T11:46:30.598Z,12.10
2023-05-13T11:51:36.447Z,12.09
2023-05-13T11:56:44.280Z,12.13
2023-05-13T12:01:58.891Z,12.18
2023-05-13T12:07:05.164Z,12.09
2023-05-13T12:12:09.011Z,11.99
2023-05-13T12:17:12.962Z,11.99
2023-05-13T12:22:21.988Z,11.81
2023-05-13T12:27:25.674Z,11.86
2023-05-13T12:32:29.345Z,11.93
2023-05-13T12:37:34.661Z,12.00
2023-05-13T12:42:38.580Z,11.92
2023-05-13T12:47:52.024Z,11.93
2023-05-13T12:52:58.080Z,11.90
2023-05-13T12:58:01.652Z,11.90
2023-05-13T13:03:05.483Z,11.95
2023-05-13T13:08:10.888Z,12.00
2023-05-13T13:13:14.493Z,11.99
2023-05-13T13:18:19.497Z,11.96
2023-05-13T13:23:24.817Z,12.00
2023-05-13T13:28:28.580Z,12.11
2023-05-13T13:33:32.293Z,12.19
2023-05-13T13:38:38.455Z,12.08
2023-05-13T13:43:42.148Z,12.10
2023-05-13T13:48:45.780Z,12.24
2023-05-13T13:53:51.170Z,12.31
2023-05-13T13:58:54.768Z,12.44
2023-05-13T14:04:11.831Z,12.51
2023-05-13T14:09:17.209Z,12.56
2023-05-13T14:14:20.868Z,12.52
2023-05-13T14:19:24.518Z,12.58
2023-05-13T14:24:29.761Z,12.82
2023-05-13T14:29:33.340Z,13.04
2023-05-13T14:34:37.845Z,13.36
2023-05-13T14:39:43.110Z,13.56
2023-05-13T14:44:46.752Z,13.91
2023-05-13T14:49:50.399Z,14.23
2023-05-13T14:54:55.734Z,14.71
2023-05-13T15:00:00.118Z,14.66
2023-05-13T15:05:03.946Z,15.10
2023-05-13T15:10:11.803Z,15.90
2023-05-13T15:15:15.420Z,16.26
2023-05-13T15:20:19.280Z,16.90
2023-05-13T15:25:24.862Z,17.44
2023-05-13T15:30:30.661Z,17.98
2023-05-13T15:35:36.091Z,18.60
2023-05-13T15:40:41.445Z,19.09
2023-05-13T15:45:45.185Z,19.64
2023-05-13T15:50:49.070Z,20.03
2023-05-13T15:55:54.766Z,20.12
2023-05-13T16:00:57.581Z,20.57
2023-05-13T16:06:01.340Z,20.76
2023-05-13T16:11:06.704Z,21.26
2023-05-13T16:16:10.407Z,21.59
2023-05-13T16:21:14.271Z,21.83
2023-05-13T16:26:19.640Z,21.98
2023-05-13T16:31:22.542Z,22.24
2023-05-13T16:36:26.216Z,22.37
2023-05-13T16:41:31.502Z,22.77
2023-05-13T16:46:34.321Z,22.76
2023-05-13T16:51:37.893Z,23.08
2023-05-13T16:56:43.683Z,23.33
2023-05-13T17:01:47.445Z,23.60
2023-05-13T17:06:51.134Z,23.68
2023-05-13T17:11:57.044Z,23.90
2023-05-13T17:17:00.736Z,24.10
2023-05-13T17:22:04.494Z,24.06
2023-05-13T17:27:09.828Z,24.11
2023-05-13T17:32:13.526Z,23.82
2023-05-13T17:37:17.148Z,24.14
2023-05-13T17:42:22.383Z,24.43
2023-05-13T17:47:26.066Z,24.48
2023-05-13T17:52:29.657Z,24.86
2023-05-13T17:57:34.963Z,24.90
2023-05-13T18:02:38.670Z,25.30
2023-05-13T18:07:42.281Z,25.36
2023-05-13T18:12:47.519Z,25.70
2023-05-13T18:17:51.356Z,25.88
2023-05-13T18:22:55.005Z,25.59
2023-05-13T18:28:00.312Z,25.89
2023-05-13T18:33:04.033Z,26.14
2023-05-13T18:38:07.692Z,26.24
2023-05-13T18:43:12.948Z,26.20
2023-05-13T18:48:16.589Z,26.43
2023-05-13T18:53:20.299Z,26.66
2023-05-13T18:58:25.773Z,26.80
2023-05-13T19:03:29.457Z,26.92
2023-05-13T19:08:33.172Z,26.97
2023-05-13T19:13:46.765Z,27.15
2023-05-13T19:18:51.162Z,27.39
2023-05-13T19:23:54.835Z,27.55
2023-05-13T19:29:00.202Z,27.76
2023-05-13T19:34:03.860Z,27.91
2023-05-13T19:39:07.509Z,28.33
2023-05-13T19:44:12.791Z,28.42
2023-05-13T19:49:16.378Z,28.44
2023-05-13T19:54:20.102Z,28.36
2023-05-13T19:59:25.504Z,28.42
2023-05-13T20:04:29.823Z,28.65
2023-05-13T20:09:33.492Z,28.65
2023-05-13T20:14:45.917Z,28.88
2023-05-13T20:19:50.285Z,29.17
2023-05-13T20:24:53.195Z,28.94
2023-05-13T20:29:58.643Z,29.33
2023-05-13T20:35:02.258Z,29.33
2023-05-13T20:40:07.012Z,29.25
2023-05-13T20:45:13.152Z,29.46
2023-05-13T20:50:16.860Z,29.21
2023-05-13T20:55:20.600Z,29.53
2023-05-13T21:00:26.149Z,29.52
2023-05-13T21:05:29.925Z,29.74
2023-05-13T21:10:33.535Z,29.90
2023-05-13T21:15:38.843Z,30.14
2023-05-13T21:20:42.435Z,30.24
2023-05-13T21:25:46.302Z,30.22
2023-05-13T21:30:51.600Z,30.26
2023-05-13T21:35:55.643Z,30.35
2023-05-13T21:40:59.554Z,30.49
2023-05-13T21:46:04.834Z,30.51
2023-05-13T21:51:08.462Z,30.61
2023-05-13T21:56:12.050Z,30.63
2023-05-13T22:01:17.394Z,30.58
2023-05-13T22:06:20.967Z,30.43
2023-05-13T22:11:24.606Z,30.17
2023-05-13T22:16:29.986Z,30.27
2023-05-13T22:21:33.648Z,30.41
2023-05-13T22:26:37.325Z,30.42
2023-05-13T22:31:42.634Z,30.54
2023-05-13T22:36:46.301Z,30.67
2023-05-13T22:41:49.935Z,30.70
2023-05-13T22:46:55.220Z,30.58
2023-05-13T22:51:58.824Z,30.38
2023-05-13T22:57:02.464Z,30.43
2023-05-13T23:02:07.938Z,30.42
2023-05-13T23:07:11.679Z,30.52
2023-05-13T23:12:15.272Z,30.47
2023-05-13T23:17:21.545Z,30.38
2023-05-13T23:22:25.160Z,30.40
2023-05-13T23:27:28.801Z,30.41
2023-05-13T23:32:34.100Z,30.28
2023-05-13T23:37:38.398Z,30.27
2023-05-13T23:42:42.011Z,30.18
2023-05-13T23:47:47.285Z,30.16
2023-05-13T23:52:50.898Z,30.12
2023-05-13T23:57:54.543Z,30.09
